Bombardier CRJ900 скатился со скользкой дорожки

Bombardier CRJ900 авиакомпании Mesa Airlines в ливрее American EagleBombardier CRJ900 авиакомпании Mesa Airlines в ливрее American Eagle
Пострадавший Bombardier CRJ900 авиакомпании Mesa Airlines в ливрее American Eagle до аварии — 17 августа 2016 года

Bombardier CRJ900 авиакомпании Mesa Airlines, выполнявший рейс AA5766 для American Airlines из аэропорта Даллас/Форт-Уэрт (DFW) в региональный аэропорт Колумбии (COU), выкатился с рулёжной дорожки после посадки.

Инцидент произошёл в 14:23 по местному времени 11-го января. На борту было 80 пассажиров и членов экипажа.

Диспетчеры сообщили экипажу, что приземлившийся за 15 минут до этого аналогичный самолёт оценил торможение на ВПП как «в основном, хорошее», а на рулёжной дорожке как «нулевое». ВПП 02, на которую совершалась посадка, обрабатывалась противообледенительными реагентами, и текущее торможение оценивалось как 3/3/3.

Самолёт успешно приземлился и затормозил, однако при повороте на рулёжную дорожку почти сразу же съехал с неё в заснеженный грунт передним и правым основным шасси и остановился. Пассажиры высадились на взлётно-посадочную полосу и были доставлены автобусом к терминалу, пострадавших нет.

Обратный рейс был отменён; последующая буксировка самолёта заняла почти 22 часа, в течение которых аэропорт Колумбии оставался закрытым.

Показания METAR:

KCOU 112102Z 13006KT 1/2SM SN FG BKN004 OVC009 00/00 A3017 RMK AO2 P0002 T00000000=
KCOU 112054Z 12007KT 1/2SM SN FG OVC005 00/00 A3017 RMK AO2 SLP224 P0011 60028 I3000 T00000000 55008=
KCOU 111954Z 12006KT 1/2SM SN FG OVC005 01/00 A3016 RMK AO2 SLP221 P0009 T00060000=
KCOU 111941Z 13006KT 1/2SM SN FG OVC005 01/00 A3017 RMK AO2 P0008 T00060000=